Antonello — IKVS — position and weather

sailwx.info

Track history (hours):
 
Tides and Currents Weather Stations Pressure Air Temp Water Temp Dewpoint Dewpoint Depression Visibility Wind Speed Wind Dir Waves Ship Positions

Antonello

Last reported at 2018-Apr-17 12:19 UTC. Time now 2018-Apr-24 08:21 UTC.
Position N 40°50' E 014°16'.

Length 70 m; draft 3.5 m.

Type: Ship. MMSI: 247422000.

Date/timePositionNaut miles runAvg speedWind from/ knotsBaromVisibWave heightAir tempDewpointWater temp
2018-Apr-17 12:19N 40°50' E 014°16'0 0.0
2018-Apr-17 09:18N 40°50' E 014°16'0 0.0
2018-Apr-17 09:00N 40°50' E 014°16'0 0.3
2018-Apr-17 08:29N 40°50' E 014°16'1 2.4
2018-Apr-17 08:00N 40°49' E 014°16'0 0.5
2018-Apr-17 07:20N 40°49' E 014°16'0 0.0
2018-Apr-17 06:59N 40°49' E 014°16'0 0.0
2018-Apr-17 06:28N 40°49' E 014°16'0 0.0
2018-Apr-17 05:55N 40°49' E 014°16'0 0.0
2018-Apr-17 05:28N 40°49' E 014°16'0 0.0
2018-Apr-17 04:58N 40°49' E 014°16'0 0.0
2018-Apr-17 04:30N 40°49' E 014°16'0 0.1
2018-Apr-17 04:00N 40°49' E 014°16'0 0.0
2018-Apr-17 03:28N 40°49' E 014°16'0 0.0
2018-Apr-17 02:58N 40°49' E 014°16'0 0.0
2018-Apr-17 02:30N 40°49' E 014°16'0 0.1
2018-Apr-17 02:00N 40°49' E 014°16'0 0.0
2018-Apr-17 01:30N 40°49' E 014°16'0 0.0
2018-Apr-17 00:59N 40°49' E 014°16'0 0.0
2018-Apr-17 00:29N 40°49' E 014°16'0 0.0
2018-Apr-16 23:59N 40°49' E 014°16'0 0.0
2018-Apr-16 23:29N 40°49' E 014°16'0 0.0
2018-Apr-16 22:58N 40°49' E 014°16'0 0.0
2018-Apr-16 22:28N 40°49' E 014°16'0 0.6
2018-Apr-16 22:00N 40°49' E 014°15'5 9.0
2018-Apr-16 21:30N 40°46' E 014°12'5 9.3
2018-Apr-16 21:00N 40°43' E 014°07'5 9.3
2018-Apr-16 20:30N 40°41' E 014°01'5 8.9
2018-Apr-16 20:00N 40°40' E 013°55'4 8.7
2018-Apr-16 19:29N 40°41' E 013°50'4 8.8
2018-Apr-16 19:00N 40°43' E 013°45'  
Track history (hours):
 
Tides and Currents Weather Stations Pressure Air Temp Water Temp Dewpoint Dewpoint Depression Visibility Wind Speed Wind Dir Waves Ship Positions

Antonello

Last reported at 2018-Apr-17 12:19 UTC. Time now 2018-Apr-24 08:21 UTC.
Position N 40°50' E 014°16'.

Length 70 m; draft 3.5 m.

Type: Ship. MMSI: 247422000.

Date/timePositionNaut miles runAvg speedWind from/ knotsBaromVisibWave heightAir tempDewpointWater temp
2018-Apr-17 12:19N 40°50' E 014°16'0 0.0
2018-Apr-17 09:18N 40°50' E 014°16'0 0.0
2018-Apr-17 09:00N 40°50' E 014°16'0 0.3
2018-Apr-17 08:29N 40°50' E 014°16'1 2.4
2018-Apr-17 08:00N 40°49' E 014°16'0 0.5
2018-Apr-17 07:20N 40°49' E 014°16'0 0.0
2018-Apr-17 06:59N 40°49' E 014°16'0 0.0
2018-Apr-17 06:28N 40°49' E 014°16'0 0.0
2018-Apr-17 05:55N 40°49' E 014°16'0 0.0
2018-Apr-17 05:28N 40°49' E 014°16'0 0.0
2018-Apr-17 04:58N 40°49' E 014°16'0 0.0
2018-Apr-17 04:30N 40°49' E 014°16'0 0.1
2018-Apr-17 04:00N 40°49' E 014°16'0 0.0
2018-Apr-17 03:28N 40°49' E 014°16'0 0.0
2018-Apr-17 02:58N 40°49' E 014°16'0 0.0
2018-Apr-17 02:30N 40°49' E 014°16'0 0.1
2018-Apr-17 02:00N 40°49' E 014°16'0 0.0
2018-Apr-17 01:30N 40°49' E 014°16'0 0.0
2018-Apr-17 00:59N 40°49' E 014°16'0 0.0
2018-Apr-17 00:29N 40°49' E 014°16'0 0.0
2018-Apr-16 23:59N 40°49' E 014°16'0 0.0
2018-Apr-16 23:29N 40°49' E 014°16'0 0.0
2018-Apr-16 22:58N 40°49' E 014°16'0 0.0
2018-Apr-16 22:28N 40°49' E 014°16'0 0.6
2018-Apr-16 22:00N 40°49' E 014°15'5 9.0
2018-Apr-16 21:30N 40°46' E 014°12'5 9.3
2018-Apr-16 21:00N 40°43' E 014°07'5 9.3
2018-Apr-16 20:30N 40°41' E 014°01'5 8.9
2018-Apr-16 20:00N 40°40' E 013°55'4 8.7
2018-Apr-16 19:29N 40°41' E 013°50'4 8.8
2018-Apr-16 19:00N 40°43' E 013°45'  

Dump ship's entire track history